Time;durP1;ratioP1;P1;durP2;ratioP2;P2;SDS_P1;SDS_P2;PMS_P1;PMS_P2;Temp;Humidity;BMP_temperature;BMP_pressure;BME280_temperature;BME280_humidity;BME280_pressure;Samples;Min_cycle;Max_cycle;Signal;HPM_P1;HPM_P2
2021/11/22 00:00:03;;;;;;;16.92;12.70;;;4.80;99.90;;;;;;4997546;28;20110;-83
2021/11/22 00:02:29;;;;;;;21.83;13.75;;;4.80;99.90;;;;;;4997360;28;20056;-83
2021/11/22 00:04:55;;;;;;;16.85;12.98;;;4.70;99.90;;;;;;5000074;28;20109;-82
2021/11/22 00:07:20;;;;;;;15.98;11.48;;;5.00;99.90;;;;;;5000631;28;20045;-82
2021/11/22 00:09:46;;;;;;;17.60;12.85;;;6.50;99.90;;;;;;4981424;28;20018;-83
2021/11/22 00:12:12;;;;;;;20.33;13.80;;;4.80;99.90;;;;;;4997677;28;20054;-83
2021/11/22 00:14:37;;;;;;;19.13;13.27;;;4.80;99.90;;;;;;4996710;28;20391;-83
2021/11/22 00:17:03;;;;;;;21.88;14.20;;;4.90;99.90;;;;;;4979432;28;20030;-83
2021/11/22 00:19:30;;;;;;;20.63;13.50;;;4.90;99.90;;;;;;4997104;28;20429;-83
2021/11/22 00:21:55;;;;;;;21.85;13.95;;;5.00;99.90;;;;;;4997174;28;20033;-83
2021/11/22 00:24:21;;;;;;;19.48;13.40;;;4.80;99.90;;;;;;4981676;28;20038;-83
2021/11/22 00:26:47;;;;;;;22.33;15.00;;;4.90;99.90;;;;;;4980802;28;20097;-83
2021/11/22 00:29:13;;;;;;;24.55;14.18;;;6.60;99.90;;;;;;4975408;28;20161;-84
2021/11/22 00:31:40;;;;;;;20.30;13.73;;;4.80;99.90;;;;;;5000286;28;20061;-84
2021/11/22 00:34:06;;;;;;;22.65;14.25;;;4.90;99.90;;;;;;5002548;28;20110;-85
2021/11/22 00:36:32;;;;;;;20.63;14.07;;;4.90;99.90;;;;;;5002956;28;20034;-84
2021/11/22 00:38:58;;;;;;;19.58;14.45;;;4.90;99.90;;;;;;4996143;28;20037;-83
2021/11/22 00:41:23;;;;;;;20.95;14.00;;;5.00;99.90;;;;;;4986191;28;20038;-84
2021/11/22 00:43:49;;;;;;;23.15;15.50;;;4.80;99.90;;;;;;4988359;28;20030;-84
2021/11/22 00:46:15;;;;;;;21.92;14.05;;;4.70;99.90;;;;;;5005902;28;20027;-85
2021/11/22 00:48:40;;;;;;;23.10;14.93;;;4.70;99.90;;;;;;5001420;28;20029;-84
2021/11/22 00:51:06;;;;;;;23.33;15.18;;;4.90;99.90;;;;;;4986613;28;20509;-84
2021/11/22 00:53:32;;;;;;;24.52;14.88;;;4.60;99.90;;;;;;4986277;28;20018;-84
2021/11/22 00:55:58;;;;;;;22.27;15.50;;;6.50;99.90;;;;;;5000587;28;20046;-84
2021/11/22 00:58:23;;;;;;;25.05;14.73;;;4.90;99.90;;;;;;4990210;28;20090;-84
2021/11/22 01:00:49;;;;;;;23.17;15.05;;;4.90;99.90;;;;;;5004077;28;20098;-84
2021/11/22 01:03:16;;;;;;;22.23;14.65;;;6.50;99.90;;;;;;5004253;28;20121;-84
2021/11/22 01:05:41;;;;;;;23.90;14.48;;;4.80;99.90;;;;;;5002636;28;20026;-84
2021/11/22 01:08:08;;;;;;;21.48;14.65;;;5.00;99.90;;;;;;5003221;28;20035;-84
2021/11/22 01:10:34;;;;;;;23.40;14.10;;;4.90;99.90;;;;;;4984942;28;20037;-84
2021/11/22 01:13:00;;;;;;;20.00;13.82;;;5.10;99.90;;;;;;4985533;28;20026;-83
2021/11/22 01:15:26;;;;;;;24.30;14.23;;;4.90;99.90;;;;;;5002324;28;20026;-83
2021/11/22 01:17:54;;;;;;;24.40;14.55;;;5.00;99.90;;;;;;5006593;28;20030;-84
2021/11/22 01:20:28;;;;;;;23.60;14.23;;;4.90;99.90;;;;;;4990644;28;20023;-82
2021/11/22 01:22:54;;;;;;;27.80;15.40;;;5.00;99.90;;;;;;5002974;28;20035;-82
2021/11/22 01:25:19;;;;;;;23.98;14.43;;;6.50;99.90;;;;;;5002229;28;20069;-82
2021/11/22 01:27:46;;;;;;;23.25;14.63;;;4.90;99.90;;;;;;4996712;28;20018;-82
2021/11/22 01:30:12;;;;;;;23.85;14.75;;;5.00;99.90;;;;;;4996373;28;20033;-83
2021/11/22 01:32:39;;;;;;;27.20;15.00;;;5.10;99.90;;;;;;4996224;28;20031;-82
2021/11/22 01:35:05;;;;;;;24.25;15.27;;;6.80;99.90;;;;;;4995950;28;20034;-82
2021/11/22 01:37:31;;;;;;;25.08;14.80;;;5.00;99.90;;;;;;4996172;28;20042;-82
2021/11/22 01:39:57;;;;;;;21.55;13.85;;;4.90;99.90;;;;;;4995034;28;20495;-82
2021/11/22 01:42:22;;;;;;;23.48;13.30;;;4.90;99.90;;;;;;4981837;28;20030;-82
2021/11/22 01:44:48;;;;;;;22.25;13.63;;;5.10;99.90;;;;;;4996517;28;20125;-82
2021/11/22 01:47:14;;;;;;;21.23;13.50;;;5.00;99.90;;;;;;4978985;28;20062;-82
2021/11/22 01:49:40;;;;;;;25.20;13.50;;;4.90;99.90;;;;;;4996708;28;20082;-82
2021/11/22 01:52:06;;;;;;;22.33;13.90;;;5.50;99.90;;;;;;4979373;28;20459;-82
2021/11/22 01:54:31;;;;;;;24.92;14.75;;;5.00;99.90;;;;;;4996171;28;20113;-83
2021/11/22 01:56:59;;;;;;;22.27;13.63;;;5.00;99.90;;;;;;4978766;28;20049;-83
2021/11/22 01:59:24;;;;;;;27.52;13.85;;;4.90;99.90;;;;;;4995620;28;20082;-82
2021/11/22 02:01:51;;;;;;;23.38;13.43;;;5.00;99.90;;;;;;4978773;28;20053;-82
2021/11/22 02:04:16;;;;;;;18.55;12.27;;;5.20;99.90;;;;;;4996698;28;20029;-81
2021/11/22 02:06:43;;;;;;;21.42;12.77;;;5.10;99.90;;;;;;4996359;28;20026;-81
2021/11/22 02:09:09;;;;;;;19.95;12.20;;;5.00;99.90;;;;;;4995815;28;20027;-82
2021/11/22 02:11:35;;;;;;;20.33;13.18;;;5.10;99.90;;;;;;4996449;28;20034;-82
2021/11/22 02:14:02;;;;;;;18.77;12.80;;;5.00;99.90;;;;;;4995635;28;20038;-82
2021/11/22 02:16:28;;;;;;;20.20;13.68;;;5.10;99.90;;;;;;4995667;28;20105;-81
2021/11/22 02:18:55;;;;;;;18.90;12.32;;;5.00;99.90;;;;;;4995141;28;20046;-82
2021/11/22 02:21:21;;;;;;;22.77;13.60;;;5.10;99.90;;;;;;4978254;28;20443;-81
2021/11/22 02:23:46;;;;;;;21.75;13.82;;;5.00;99.90;;;;;;4996479;28;20089;-82
2021/11/22 02:26:12;;;;;;;19.65;13.35;;;5.10;99.90;;;;;;4978570;28;20031;-82
2021/11/22 02:28:38;;;;;;;17.88;11.77;;;5.10;99.90;;;;;;4989721;28;20023;-82
2021/11/22 02:31:05;;;;;;;20.63;12.38;;;5.10;99.90;;;;;;4987072;28;20081;-82
2021/11/22 02:33:30;;;;;;;22.13;12.57;;;5.10;99.90;;;;;;4995806;28;20618;-82
2021/11/22 02:35:59;;;;;;;22.02;11.80;;;5.10;99.90;;;;;;4995891;28;20066;-83
2021/11/22 02:38:36;;;;;;;19.77;11.93;;;6.70;99.90;;;;;;4992152;28;20064;-82
2021/11/22 02:41:04;;;;;;;18.17;11.30;;;5.90;99.90;;;;;;4983238;28;20438;-83
2021/11/22 02:43:35;;;;;;;18.88;11.93;;;5.00;99.90;;;;;;4997004;28;20027;-82
2021/11/22 02:46:01;;;;;;;18.02;11.15;;;5.10;99.90;;;;;;4998674;28;20030;-83
2021/11/22 02:48:27;;;;;;;16.77;10.98;;;5.60;99.90;;;;;;4995379;28;20097;-83
2021/11/22 02:50:53;;;;;;;16.65;10.48;;;5.20;99.90;;;;;;5000194;28;20439;-82
2021/11/22 02:53:19;;;;;;;19.88;12.02;;;5.00;99.90;;;;;;5000594;28;20031;-82
2021/11/22 02:55:45;;;;;;;18.58;10.93;;;5.20;99.90;;;;;;5000477;28;20492;-83
2021/11/22 02:58:11;;;;;;;20.63;11.10;;;6.50;99.90;;;;;;4999476;28;20069;-83
2021/11/22 03:00:38;;;;;;;21.02;12.15;;;5.20;99.90;;;;;;4998030;28;20034;-83
2021/11/22 03:03:04;;;;;;;18.38;10.82;;;5.80;99.90;;;;;;4998516;28;20499;-83
2021/11/22 03:05:30;;;;;;;19.98;11.88;;;5.10;99.90;;;;;;4999230;28;20030;-83
2021/11/22 03:07:57;;;;;;;17.67;11.18;;;5.20;99.90;;;;;;4999279;28;20026;-82
2021/11/22 03:10:26;;;;;;;19.73;11.93;;;5.10;99.90;;;;;;4997640;28;20050;-83
2021/11/22 03:12:52;;;;;;;20.55;11.20;;;5.20;99.90;;;;;;4998336;28;20045;-82
2021/11/22 03:15:20;;;;;;;18.15;11.32;;;5.20;99.90;;;;;;4999334;28;20030;-83
2021/11/22 03:17:46;;;;;;;22.63;12.23;;;5.10;99.90;;;;;;4998634;28;20679;-81
2021/11/22 03:20:14;;;;;;;17.45;10.93;;;5.10;99.90;;;;;;4979359;28;20050;-81
2021/11/22 03:22:40;;;;;;;17.67;10.65;;;6.30;99.90;;;;;;4979070;28;20031;-82
2021/11/22 03:25:09;;;;;;;16.80;10.68;;;5.00;99.90;;;;;;4978963;28;20023;-83
2021/11/22 03:27:35;;;;;;;17.48;10.35;;;5.40;99.90;;;;;;4979217;28;20019;-81
2021/11/22 03:30:02;;;;;;;17.17;9.70;;;5.20;99.90;;;;;;4997298;28;20181;-81
2021/11/22 03:32:28;;;;;;;15.13;9.70;;;6.50;99.90;;;;;;4999775;28;20526;-82
2021/11/22 03:34:55;;;;;;;15.88;9.93;;;5.30;99.90;;;;;;4999446;28;20054;-82
2021/11/22 03:37:21;;;;;;;18.95;11.13;;;5.30;99.90;;;;;;4999154;28;20042;-82
2021/11/22 03:39:50;;;;;;;17.45;10.20;;;6.40;99.90;;;;;;4983320;28;20035;-82
2021/11/22 03:42:17;;;;;;;18.27;11.00;;;5.30;99.90;;;;;;4979216;28;20470;-82
2021/11/22 03:44:44;;;;;;;21.85;11.88;;;5.30;99.90;;;;;;4979026;28;20023;-82
2021/11/22 03:47:09;;;;;;;22.48;12.48;;;5.30;99.90;;;;;;4979642;28;20086;-80
2021/11/22 03:49:35;;;;;;;20.73;12.82;;;5.30;99.90;;;;;;4979738;28;20027;-82
2021/11/22 03:52:02;;;;;;;20.20;12.18;;;5.30;99.90;;;;;;4978628;28;20035;-81
2021/11/22 03:54:28;;;;;;;22.15;12.98;;;5.30;99.90;;;;;;4978250;28;20395;-82
2021/11/22 03:56:54;;;;;;;25.88;13.07;;;7.10;99.90;;;;;;4979439;28;20095;-82
2021/11/22 03:59:19;;;;;;;22.85;12.40;;;5.20;99.90;;;;;;4978683;28;20197;-81
2021/11/22 04:01:45;;;;;;;22.60;13.30;;;5.30;99.90;;;;;;4978428;28;20094;-82
2021/11/22 04:04:11;;;;;;;23.85;13.23;;;5.20;99.90;;;;;;4981595;28;20610;-82
2021/11/22 04:06:37;;;;;;;27.55;13.68;;;5.30;99.90;;;;;;4998148;28;20094;-82
2021/11/22 04:09:04;;;;;;;24.65;13.95;;;5.30;99.90;;;;;;4979757;28;20023;-82
2021/11/22 04:11:31;;;;;;;26.80;14.43;;;5.10;99.90;;;;;;4997713;28;20045;-82
2021/11/22 04:13:56;;;;;;;29.75;14.45;;;5.20;99.90;;;;;;4997579;28;20048;-81
2021/11/22 04:16:22;;;;;;;26.40;13.70;;;5.70;99.90;;;;;;4997574;28;20499;-81
2021/11/22 04:18:49;;;;;;;26.05;14.23;;;5.20;99.90;;;;;;4990485;28;20019;-82
2021/11/22 04:21:16;;;;;;;24.20;12.75;;;5.30;99.90;;;;;;4979379;28;20023;-81
2021/11/22 04:23:42;;;;;;;23.17;13.05;;;5.10;99.90;;;;;;4979730;28;20047;-82
2021/11/22 04:26:10;;;;;;;23.73;13.63;;;7.10;99.90;;;;;;4995295;28;20582;-82
2021/11/22 04:28:36;;;;;;;22.33;12.50;;;5.20;99.90;;;;;;4999204;28;20030;-82
2021/11/22 04:31:02;;;;;;;24.60;12.48;;;5.30;99.90;;;;;;5000616;28;20027;-82
2021/11/22 04:33:28;;;;;;;25.55;13.32;;;5.20;99.90;;;;;;5000298;28;20018;-83
2021/11/22 04:35:53;;;;;;;24.02;13.80;;;5.90;99.90;;;;;;5002053;28;20046;-82
2021/11/22 04:38:19;;;;;;;24.63;13.15;;;5.20;99.90;;;;;;4994618;28;20042;-82
2021/11/22 04:40:44;;;;;;;19.92;12.20;;;5.30;99.90;;;;;;4998492;28;20030;-81
2021/11/22 04:43:10;;;;;;;24.23;13.48;;;5.30;99.90;;;;;;5000121;28;20027;-82
2021/11/22 04:45:36;;;;;;;20.77;12.43;;;5.30;99.90;;;;;;5001377;28;20038;-81
2021/11/22 04:48:04;;;;;;;23.63;13.15;;;5.40;99.90;;;;;;4998560;28;20038;-81
2021/11/22 04:50:30;;;;;;;24.92;13.38;;;5.30;99.90;;;;;;4998574;28;20023;-82
2021/11/22 04:52:57;;;;;;;25.38;13.50;;;5.30;99.90;;;;;;4999308;28;20041;-82
2021/11/22 04:55:24;;;;;;;24.92;13.93;;;5.20;99.90;;;;;;4998246;28;20037;-82
2021/11/22 04:57:50;;;;;;;26.20;13.63;;;5.30;99.90;;;;;;5000728;28;20114;-82
2021/11/22 05:00:19;;;;;;;25.23;13.43;;;5.30;99.90;;;;;;4983038;28;20042;-80
2021/11/22 05:02:48;;;;;;;21.88;13.13;;;5.90;99.90;;;;;;4999877;28;20511;-82
2021/11/22 05:05:16;;;;;;;22.45;13.52;;;5.40;99.90;;;;;;5000321;28;20035;-81
2021/11/22 05:07:42;;;;;;;22.63;13.30;;;5.40;99.90;;;;;;4983703;28;20058;-81
2021/11/22 05:10:09;;;;;;;20.65;12.15;;;5.50;99.90;;;;;;4998537;28;20030;-81
2021/11/22 05:12:36;;;;;;;21.27;12.55;;;6.40;99.90;;;;;;4999167;28;20434;-82
2021/11/22 05:15:02;;;;;;;23.63;13.88;;;5.50;99.90;;;;;;4998870;28;20046;-82
2021/11/22 05:17:28;;;;;;;23.67;13.55;;;7.10;99.90;;;;;;4999899;28;20062;-82
2021/11/22 05:19:53;;;;;;;22.23;13.30;;;5.40;99.90;;;;;;4984806;28;20089;-82
2021/11/22 05:22:21;;;;;;;23.60;13.90;;;5.50;99.90;;;;;;4963564;28;20081;-81
2021/11/22 05:24:49;;;;;;;20.38;12.65;;;7.30;99.90;;;;;;4979311;28;20062;-81
2021/11/22 05:27:16;;;;;;;22.75;13.60;;;5.90;99.90;;;;;;4986906;28;20479;-81
2021/11/22 05:29:42;;;;;;;22.70;13.07;;;5.40;99.90;;;;;;4984181;28;20031;-81
2021/11/22 05:32:08;;;;;;;23.67;14.32;;;5.60;99.90;;;;;;4979872;28;20031;-81
2021/11/22 05:34:34;;;;;;;22.73;13.50;;;7.30;99.90;;;;;;4977386;28;20034;-82
2021/11/22 05:36:59;;;;;;;22.60;14.00;;;5.50;99.90;;;;;;4977975;28;20504;-81
2021/11/22 05:39:25;;;;;;;25.85;14.52;;;6.90;99.90;;;;;;4960044;28;20122;-80
2021/11/22 05:41:51;;;;;;;23.27;13.23;;;5.60;99.90;;;;;;4986021;28;20370;-80
2021/11/22 05:44:16;;;;;;;24.10;13.32;;;5.60;99.90;;;;;;4977276;28;20034;-82
2021/11/22 05:46:42;;;;;;;25.35;14.23;;;5.60;99.90;;;;;;4998898;28;20035;-82
2021/11/22 05:49:07;;;;;;;25.23;14.38;;;5.60;99.90;;;;;;5008056;28;20598;-81
2021/11/22 05:51:33;;;;;;;26.58;15.10;;;5.50;99.90;;;;;;5009180;28;20034;-81
2021/11/22 05:54:02;;;;;;;21.35;13.70;;;5.60;99.90;;;;;;5008218;28;20030;-82
2021/11/22 05:56:27;;;;;;;25.08;14.32;;;5.50;99.90;;;;;;4995912;28;20034;-81
2021/11/22 05:58:53;;;;;;;25.00;14.80;;;5.60;99.90;;;;;;4976894;28;20101;-80
2021/11/22 06:01:18;;;;;;;24.70;14.57;;;5.70;99.90;;;;;;4993853;28;20026;-81
2021/11/22 06:03:44;;;;;;;25.75;14.00;;;5.70;99.90;;;;;;4993497;28;20538;-80
2021/11/22 06:06:10;;;;;;;25.90;15.73;;;5.70;99.90;;;;;;4992948;28;20034;-81
2021/11/22 06:08:36;;;;;;;24.23;14.52;;;6.00;99.90;;;;;;4989063;28;20066;-80
2021/11/22 06:11:02;;;;;;;21.88;13.35;;;5.70;99.90;;;;;;4994056;28;20081;-81
2021/11/22 06:13:27;;;;;;;25.45;14.65;;;5.70;99.90;;;;;;4994320;28;20391;-81
2021/11/22 06:15:53;;;;;;;25.48;14.45;;;5.70;99.90;;;;;;4993897;28;20041;-82
2021/11/22 06:18:19;;;;;;;26.80;15.43;;;5.80;99.90;;;;;;4994401;28;20035;-81
2021/11/22 06:20:45;;;;;;;28.98;16.52;;;5.70;99.90;;;;;;4996585;28;20033;-81
2021/11/22 06:23:11;;;;;;;35.05;17.33;;;5.90;99.90;;;;;;4994573;28;20033;-80
2021/11/22 06:25:36;;;;;;;35.08;17.50;;;5.80;99.90;;;;;;4997757;28;20027;-82
2021/11/22 06:28:03;;;;;;;41.33;19.80;;;5.60;99.90;;;;;;4996474;28;20036;-79
2021/11/22 06:30:30;;;;;;;33.95;18.05;;;5.80;99.90;;;;;;4995872;28;20589;-80
2021/11/22 06:32:56;;;;;;;34.92;17.27;;;5.80;99.90;;;;;;4994783;28;20101;-80
2021/11/22 06:35:22;;;;;;;40.95;19.02;;;5.90;99.90;;;;;;4996801;28;20026;-80
2021/11/22 06:37:51;;;;;;;38.20;18.15;;;5.80;99.90;;;;;;4997938;28;20038;-83
2021/11/22 06:40:17;;;;;;;39.55;18.75;;;6.50;99.90;;;;;;4984456;28;20058;-81
2021/11/22 06:42:43;;;;;;;35.38;17.58;;;5.90;99.90;;;;;;4978254;28;20078;-81
2021/11/22 06:45:09;;;;;;;37.72;18.05;;;5.70;99.90;;;;;;4978114;28;20035;-81
2021/11/22 06:47:35;;;;;;;35.67;18.02;;;5.90;99.90;;;;;;4977706;28;20046;-82
2021/11/22 06:50:03;;;;;;;37.33;18.50;;;6.00;99.90;;;;;;4960228;28;20037;-82
2021/11/22 06:52:29;;;;;;;40.67;18.15;;;7.70;99.90;;;;;;4977828;28;20027;-83
2021/11/22 06:54:56;;;;;;;39.95;19.00;;;5.90;99.90;;;;;;4978020;28;20150;-80
2021/11/22 06:57:22;;;;;;;39.42;18.55;;;6.00;99.90;;;;;;4978527;28;20058;-80
2021/11/22 06:59:49;;;;;;;38.05;18.75;;;5.90;99.90;;;;;;4972462;28;20488;-82
2021/11/22 07:02:16;;;;;;;38.13;19.02;;;6.00;99.90;;;;;;4997949;28;20031;-81
2021/11/22 07:04:43;;;;;;;39.05;19.02;;;6.20;99.90;;;;;;4997982;28;20018;-81
2021/11/22 07:07:10;;;;;;;35.72;18.35;;;7.00;99.90;;;;;;4998039;28;20027;-81
2021/11/22 07:09:35;;;;;;;35.97;19.17;;;6.10;99.90;;;;;;4991434;28;20018;-80
2021/11/22 07:12:03;;;;;;;36.63;18.75;;;6.00;99.90;;;;;;4995765;28;20035;-82
2021/11/22 07:14:29;;;;;;;38.72;21.60;;;6.10;99.90;;;;;;4996821;28;20042;-81
2021/11/22 07:16:55;;;;;;;36.97;19.02;;;6.10;99.90;;;;;;4996789;28;20030;-82
2021/11/22 07:19:21;;;;;;;39.15;19.35;;;7.30;99.90;;;;;;4984055;28;20563;-80
2021/11/22 07:21:47;;;;;;;42.35;20.45;;;6.00;99.90;;;;;;4989633;28;20073;-80
2021/11/22 07:24:13;;;;;;;39.92;20.15;;;6.10;99.90;;;;;;4997851;28;20026;-80
2021/11/22 07:26:38;;;;;;;41.78;20.73;;;7.60;99.90;;;;;;4996618;28;20038;-80
2021/11/22 07:29:05;;;;;;;42.70;20.42;;;6.00;99.90;;;;;;4996427;28;20027;-81
2021/11/22 07:31:31;;;;;;;37.05;19.45;;;6.90;99.90;;;;;;4977926;28;20491;-81
2021/11/22 07:33:57;;;;;;;39.72;20.25;;;6.10;99.90;;;;;;4978061;28;20031;-80
2021/11/22 07:36:23;;;;;;;41.95;21.33;;;6.10;99.90;;;;;;4977628;28;20027;-81
2021/11/22 07:38:49;;;;;;;39.85;21.58;;;6.30;99.90;;;;;;4978053;28;20074;-80
2021/11/22 07:41:15;;;;;;;41.13;21.58;;;6.00;99.90;;;;;;4984742;28;20035;-81
2021/11/22 07:43:41;;;;;;;41.53;20.95;;;6.10;99.90;;;;;;4994005;28;20026;-82
2021/11/22 07:46:06;;;;;;;38.65;20.77;;;6.10;99.90;;;;;;4991901;28;20541;-81
2021/11/22 07:48:32;;;;;;;39.88;21.13;;;7.40;99.90;;;;;;4980207;28;20066;-83
2021/11/22 07:50:58;;;;;;;43.88;21.40;;;6.00;99.90;;;;;;4991420;28;20037;-80
2021/11/22 07:53:25;;;;;;;43.05;22.02;;;6.70;99.90;;;;;;4991298;28;20014;-81
2021/11/22 07:55:50;;;;;;;43.47;21.10;;;6.50;99.90;;;;;;4991955;28;20033;-83
2021/11/22 07:58:16;;;;;;;42.20;20.35;;;7.60;99.90;;;;;;4991096;28;20026;-82
2021/11/22 08:00:42;;;;;;;40.65;22.02;;;6.50;99.90;;;;;;4975797;28;20118;-81
2021/11/22 08:03:08;;;;;;;44.92;23.20;;;6.20;99.90;;;;;;4954976;28;20178;-81
2021/11/22 08:05:34;;;;;;;46.33;22.83;;;6.40;99.90;;;;;;4972002;28;20051;-80
2021/11/22 08:08:00;;;;;;;39.20;20.42;;;6.20;99.90;;;;;;4976319;28;20468;-81
2021/11/22 08:10:29;;;;;;;38.33;20.80;;;6.10;99.90;;;;;;4990652;28;20538;-79
2021/11/22 08:13:04;;;;;;;38.70;20.42;;;7.10;99.90;;;;;;4990402;28;20030;-79
2021/11/22 08:15:32;;;;;;;38.40;18.60;;;6.30;99.90;;;;;;4992596;28;20073;-79
2021/11/22 08:18:00;;;;;;;34.47;18.88;;;7.30;99.90;;;;;;4989630;28;20030;-83
2021/11/22 08:20:27;;;;;;;34.88;18.55;;;6.30;99.90;;;;;;4991951;28;20431;-79
2021/11/22 08:22:53;;;;;;;32.15;18.20;;;8.00;99.90;;;;;;4997819;28;20046;-79
2021/11/22 08:25:21;;;;;;;36.92;18.42;;;7.70;99.90;;;;;;4974729;28;20589;-80
2021/11/22 08:27:47;;;;;;;33.63;17.67;;;6.30;99.90;;;;;;4991811;28;20041;-80
2021/11/22 08:30:16;;;;;;;34.97;17.83;;;6.40;99.90;;;;;;4973027;28;20025;-79
2021/11/22 08:32:44;;;;;;;38.63;19.55;;;6.40;99.90;;;;;;4991655;28;20428;-82
2021/11/22 08:35:10;;;;;;;36.47;17.20;;;6.40;99.90;;;;;;4975309;28;20542;-79
2021/11/22 08:37:37;;;;;;;33.55;19.02;;;8.10;99.90;;;;;;4995045;28;20046;-79
2021/11/22 08:40:06;;;;;;;37.17;18.02;;;8.00;99.90;;;;;;4995557;28;20022;-79
2021/11/22 08:42:32;;;;;;;31.98;17.80;;;6.60;99.90;;;;;;5013009;28;20038;-83
2021/11/22 08:44:59;;;;;;;30.50;16.88;;;8.00;99.90;;;;;;5001099;28;20042;-80
2021/11/22 08:47:26;;;;;;;32.53;15.32;;;8.30;99.90;;;;;;5014629;28;20419;-79
2021/11/22 08:49:51;;;;;;;29.23;14.70;;;8.20;99.90;;;;;;4991056;28;20050;-81
2021/11/22 08:52:18;;;;;;;25.23;15.32;;;8.40;99.90;;;;;;4979987;28;20022;-79
2021/11/22 08:54:44;;;;;;;28.55;14.80;;;6.60;99.90;;;;;;4975151;28;20019;-80
2021/11/22 08:57:10;;;;;;;27.55;14.65;;;8.30;99.90;;;;;;4974770;28;20023;-79
2021/11/22 08:59:37;;;;;;;32.88;16.00;;;8.20;99.90;;;;;;4982059;28;20365;-79
2021/11/22 09:02:03;;;;;;;25.35;14.15;;;6.80;99.90;;;;;;4979795;28;20106;-79
2021/11/22 09:04:29;;;;;;;28.85;14.75;;;7.30;99.90;;;;;;4958444;28;20445;-80
2021/11/22 09:06:56;;;;;;;28.88;14.02;;;6.80;99.90;;;;;;4976307;28;20062;-80
2021/11/22 09:09:21;;;;;;;22.92;14.10;;;6.80;99.90;;;;;;4981251;28;20550;-80
2021/11/22 09:11:47;;;;;;;24.40;12.82;;;8.20;99.90;;;;;;4995281;28;20031;-80
2021/11/22 09:14:14;;;;;;;24.15;12.80;;;8.80;99.90;;;;;;4998041;28;20368;-80
2021/11/22 09:16:40;;;;;;;23.75;12.32;;;6.90;99.90;;;;;;4998727;28;20027;-79
2021/11/22 09:19:06;;;;;;;21.80;12.40;;;6.90;99.90;;;;;;4999146;28;20487;-79
2021/11/22 09:21:32;;;;;;;25.80;11.85;;;7.00;99.90;;;;;;4995443;28;20089;-80
2021/11/22 09:24:00;;;;;;;27.55;12.27;;;6.90;99.90;;;;;;4995322;28;20030;-79
2021/11/22 09:26:26;;;;;;;21.35;11.43;;;6.90;99.90;;;;;;4995699;28;20065;-79
2021/11/22 09:28:52;;;;;;;18.67;12.00;;;6.90;99.90;;;;;;4994040;28;20034;-80
2021/11/22 09:31:18;;;;;;;22.08;11.38;;;6.90;99.90;;;;;;4993370;28;20030;-80
2021/11/22 09:33:45;;;;;;;19.48;11.35;;;8.60;99.90;;;;;;4993161;28;20033;-80
2021/11/22 09:36:12;;;;;;;20.80;11.27;;;6.90;99.90;;;;;;4993466;28;20022;-81
2021/11/22 09:38:38;;;;;;;22.05;12.02;;;7.00;99.90;;;;;;4993011;28;20496;-80
2021/11/22 09:41:04;;;;;;;20.23;11.52;;;7.60;99.90;;;;;;4985739;28;20752;-80
2021/11/22 09:43:30;;;;;;;18.33;11.73;;;7.10;99.90;;;;;;4993441;28;20555;-80
2021/11/22 09:45:56;;;;;;;24.15;11.02;;;7.10;99.90;;;;;;4970315;28;20081;-80
2021/11/22 09:48:23;;;;;;;17.58;11.15;;;8.20;99.90;;;;;;4992541;28;20109;-80
2021/11/22 09:50:49;;;;;;;19.95;10.38;;;7.10;99.90;;;;;;4993931;28;20018;-80
2021/11/22 09:53:15;;;;;;;17.73;10.52;;;7.10;99.90;;;;;;4995337;28;20042;-80
2021/11/22 09:55:41;;;;;;;22.75;10.13;;;7.20;99.90;;;;;;4980349;28;20027;-80
2021/11/22 09:58:08;;;;;;;17.40;10.43;;;7.10;99.90;;;;;;4995229;28;20034;-82
2021/11/22 10:00:40;;;;;;;21.58;10.82;;;7.10;99.90;;;;;;4999450;28;20028;-82
2021/11/22 10:03:18;;;;;;;16.48;10.27;;;7.20;99.90;;;;;;4998679;28;20054;-84
2021/11/22 10:05:45;;;;;;;14.00;10.25;;;8.60;99.90;;;;;;4996542;28;20037;-82
2021/11/22 10:08:19;;;;;;;18.30;10.00;;;8.50;99.90;;;;;;4997708;28;20037;-82
2021/11/22 10:10:51;;;;;;;20.88;10.13;;;8.00;99.90;;;;;;4997675;28;20110;-83
2021/11/22 10:13:32;;;;;;;16.77;9.30;;;7.50;99.90;;;;;;4998717;28;20097;-81
2021/11/22 10:16:00;;;;;;;12.18;8.35;;;7.50;99.90;;;;;;4998631;28;20030;-81
2021/11/22 10:18:32;;;;;;;12.75;8.50;;;9.00;99.90;;;;;;5001908;28;20069;-83
2021/11/22 10:21:04;;;;;;;17.75;8.93;;;7.60;99.90;;;;;;5005060;28;20045;-80
2021/11/22 10:23:30;;;;;;;14.02;9.18;;;7.90;99.90;;;;;;5004652;28;20105;-80
2021/11/22 10:25:57;;;;;;;17.73;8.63;;;7.40;99.90;;;;;;5001823;28;20066;-80
2021/11/22 10:28:26;;;;;;;12.85;9.23;;;7.50;99.90;;;;;;4997370;28;20522;-80
2021/11/22 10:30:57;;;;;;;17.73;8.73;;;7.40;99.90;;;;;;4999388;28;20034;-80
2021/11/22 10:33:29;;;;;;;14.73;8.40;;;7.50;99.90;;;;;;4997549;28;20022;-81
2021/11/22 10:36:00;;;;;;;13.95;8.15;;;7.50;99.90;;;;;;4995492;28;20034;-80
2021/11/22 10:38:31;;;;;;;15.93;9.48;;;7.80;99.90;;;;;;4997497;28;20402;-80
2021/11/22 10:41:08;;;;;;;10.93;7.93;;;7.40;99.90;;;;;;4997980;28;20040;-82
2021/11/22 10:43:43;;;;;;;17.38;7.75;;;7.40;99.90;;;;;;4996977;28;20036;-82
2021/11/22 10:46:10;;;;;;;13.40;8.63;;;7.40;99.90;;;;;;4996567;28;20030;-82
2021/11/22 10:48:37;;;;;;;11.70;7.28;;;7.70;99.90;;;;;;4996882;28;20030;-81
2021/11/22 10:51:15;;;;;;;14.55;9.35;;;9.10;99.90;;;;;;4999025;28;20106;-81
2021/11/22 10:53:43;;;;;;;15.88;7.88;;;7.40;99.90;;;;;;5001029;28;20110;-80
2021/11/22 10:56:20;;;;;;;12.60;7.72;;;7.50;99.90;;;;;;4997744;28;20392;-80
2021/11/22 10:58:56;;;;;;;13.65;7.82;;;7.30;99.90;;;;;;4992334;28;20174;-79
2021/11/22 11:01:28;;;;;;;11.02;7.75;;;7.40;99.90;;;;;;4978731;28;20050;-84
2021/11/22 11:04:04;;;;;;;13.95;7.80;;;8.80;99.90;;;;;;4978483;28;20031;-81
2021/11/22 11:06:38;;;;;;;14.80;8.73;;;;;;;;;;4968728;28;20026;-83
2021/11/22 11:09:05;;;;;;;13.32;8.15;;;;;;;;;;4996871;28;20076;-81
2021/11/22 11:11:31;;;;;;;9.77;5.07;;;;;;;;;;4998536;28;20476;-80
2021/11/22 11:14:02;;;;;;;7.47;4.47;;;;;;;;;;4998131;28;20030;-81
2021/11/22 11:16:28;;;;;;;5.65;3.35;;;;;;;;;;4998306;28;20026;-81
2021/11/22 11:18:56;;;;;;;8.15;3.80;;;;;;;;;;4996891;28;20682;-81
2021/11/22 11:21:26;;;;;;;8.35;3.08;;;;;;;;;;4988555;28;20041;-80
2021/11/22 11:23:52;;;;;;;6.60;3.00;;;;;;;;;;4979022;28;20082;-80
2021/11/22 11:26:18;;;;;;;7.57;3.08;;;;;;;;;;4978780;28;20422;-82
2021/11/22 11:28:44;;;;;;;3.90;2.00;;;;;;;;;;4960693;28;20027;-82
2021/11/22 11:31:11;;;;;;;4.38;2.40;;;;;;;;;;4960144;28;20027;-80
2021/11/22 11:33:37;;;;;;;11.00;5.10;;;;;;;;;;4979963;28;20102;-83
2021/11/22 11:36:10;;;;;;;6.43;3.00;;;;;;;;;;4963273;28;20104;-84
2021/11/22 11:38:54;;;;;;;6.28;2.78;;;;;;;;;;4995568;28;20399;-83
2021/11/22 11:41:32;;;;;;;4.45;2.00;;;;;;;;;;4997083;28;20039;-84
2021/11/22 11:44:22;;;;;;;4.50;2.13;;;;;;;;;;4994945;28;20034;-80
2021/11/22 11:46:51;;;;;;;5.20;2.25;;;;;;;;;;4978482;28;20058;-81
2021/11/22 11:49:17;;;;;;;3.30;1.60;;;;;;;;;;4994121;28;20400;-82
2021/11/22 11:51:44;;;;;;;5.35;1.77;;;;;;;;;;4996002;28;20069;-79
2021/11/22 11:54:12;;;;;;;6.90;2.30;;;;;;;;;;4996943;28;20026;-81
2021/11/22 11:56:57;;;;;;;6.50;2.75;;;;;;;;;;4996375;28;20037;-81
2021/11/22 11:59:38;;;;;;;4.90;1.77;;;;;;;;;;4995193;28;20184;-83
2021/11/22 12:02:07;;;;;;;4.50;1.83;;;;;;;;;;4996040;28;20034;-84
2021/11/22 12:04:46;;;;;;;4.97;1.50;;;;;;;;;;4997000;28;20037;-84
2021/11/22 12:07:12;;;;;;;8.50;1.60;;;;;;;;;;4987322;28;20031;-84
2021/11/22 12:09:40;;;;;;;4.60;1.60;;;;;;;;;;4977499;28;20031;-81
2021/11/22 12:12:09;;;;;;;6.15;1.70;;;;;;;;;;4992370;28;20026;-82
2021/11/22 12:14:54;;;;;;;3.30;1.65;;;;;;;;;;4997240;28;20122;-83
2021/11/22 12:17:39;;;;;;;2.65;1.40;;;;;;;;;;4991869;28;20027;-81
2021/11/22 12:20:30;;;;;;;3.65;1.70;;;;;;;;;;4991647;28;20041;-82
2021/11/22 12:23:02;;;;;;;2.85;1.20;;;;;;;;;;4977462;28;20139;-84
2021/11/22 12:25:37;;;;;;;3.25;1.38;;;;;;;;;;4978346;28;20110;-82
2021/11/22 12:28:05;;;;;;;4.78;1.17;;;;;;;;;;4977895;28;20033;-82
2021/11/22 12:30:32;;;;;;;3.90;1.23;;;;;;;;;;4977677;28;20022;-85
2021/11/22 12:33:17;;;;;;;5.03;1.10;;;;;;;;;;4977613;28;20029;-82
2021/11/22 12:35:43;;;;;;;4.05;0.95;;;;;;;;;;4978329;28;20034;-82
2021/11/22 12:38:22;;;;;;;5.72;1.20;;;;;;;;;;4977721;28;20037;-82
2021/11/22 12:40:49;;;;;;;1.42;0.68;;;;;;;;;;4977104;28;20034;-82
2021/11/22 12:43:17;;;;;;;3.80;0.70;;;;;;;;;;4978182;28;20106;-82
2021/11/22 12:45:58;;;;;;;1.77;0.70;;;;;;;;;;4978002;28;20026;-83
2021/11/22 12:48:25;;;;;;;1.88;0.80;;;;;;;;;;4994301;28;20419;-83
2021/11/22 12:50:56;;;;;;;3.75;0.90;;;7.80;99.90;;;;;;4989296;28;20034;-81
2021/11/22 12:53:22;;;;;;;3.13;1.15;;;12.10;99.90;;;;;;4985800;28;20058;-85